createdAt,value
2019-01-18T00:02:07.239Z,99656.79
2019-01-18T00:04:40.425Z,99661.91
2019-01-18T00:07:08.603Z,99666.63
2019-01-18T00:09:35.801Z,99657.98
2019-01-18T00:12:03.243Z,99658.83
2019-01-18T00:14:30.352Z,99653.62
2019-01-18T00:16:57.465Z,99654.88
2019-01-18T00:19:24.585Z,99661.31
2019-01-18T00:21:51.869Z,99662.55
2019-01-18T00:24:19.099Z,99664.22
2019-01-18T00:26:46.251Z,99660.77
2019-01-18T00:29:13.591Z,99671.47
2019-01-18T00:31:40.876Z,99668.45
2019-01-18T00:34:08.090Z,99683.08
2019-01-18T00:36:35.270Z,99678.77
2019-01-18T00:39:05.719Z,99686.94
2019-01-18T00:41:33.041Z,99685.64
2019-01-18T00:44:00.388Z,99678.72
2019-01-18T00:46:27.488Z,99687.80
2019-01-18T00:48:55.705Z,99694.69
2019-01-18T00:51:24.124Z,99697.69
2019-01-18T00:53:51.481Z,99702.36
2019-01-18T00:56:18.923Z,99697.20
2019-01-18T00:58:46.189Z,99695.05
2019-01-18T01:01:13.545Z,99696.77
2019-01-18T01:03:40.797Z,99694.62
2019-01-18T01:06:08.052Z,99698.00
2019-01-18T01:08:35.322Z,99702.72
2019-01-18T01:11:06.100Z,99706.13
2019-01-18T01:13:33.370Z,99704.78
2019-01-18T01:16:01.750Z,99711.21
2019-01-18T01:18:30.016Z,99707.78
2019-01-18T01:20:57.378Z,99704.39
2019-01-18T01:23:26.361Z,99707.03
2019-01-18T01:25:53.526Z,99706.66
2019-01-18T01:28:20.636Z,99710.58
2019-01-18T01:30:47.739Z,99712.73
2019-01-18T01:33:14.887Z,99713.59
2019-01-18T01:35:42.021Z,99713.59
2019-01-18T01:38:09.164Z,99719.18
2019-01-18T01:40:36.287Z,99724.77
2019-01-18T01:43:03.506Z,99728.31
2019-01-18T01:45:30.735Z,99721.44
2019-01-18T01:47:57.842Z,99729.98
2019-01-18T01:50:25.971Z,99731.17
2019-01-18T01:52:53.432Z,99749.15
2019-01-18T01:55:22.481Z,99746.52
2019-01-18T01:57:49.988Z,99748.23
2019-01-18T02:00:20.617Z,99744.80
2019-01-18T02:02:49.131Z,99751.72
2019-01-18T02:05:16.444Z,99758.66
2019-01-18T02:07:44.128Z,99752.33
2019-01-18T02:10:12.401Z,99762.33
2019-01-18T02:12:42.546Z,99762.33
2019-01-18T02:15:12.236Z,99762.34
2019-01-18T02:17:39.428Z,99761.95
2019-01-18T02:20:08.711Z,99764.98
2019-01-18T02:22:36.021Z,99766.70
2019-01-18T02:25:03.987Z,99759.38
2019-01-18T02:27:31.134Z,99764.11
2019-01-18T02:29:59.598Z,99764.53
2019-01-18T02:32:26.694Z,99761.48
2019-01-18T02:34:55.063Z,99760.61
2019-01-18T02:37:24.097Z,99763.62
2019-01-18T02:39:51.491Z,99764.98
2019-01-18T02:42:18.891Z,99769.70
2019-01-18T02:44:46.220Z,99774.91
2019-01-18T02:47:13.514Z,99775.78
2019-01-18T02:49:42.448Z,99786.52
2019-01-18T02:52:09.736Z,99783.09
2019-01-18T02:54:38.167Z,99779.71
2019-01-18T02:57:07.243Z,99780.20
2019-01-18T02:59:34.447Z,99784.88
2019-01-18T03:02:02.981Z,99793.10
2019-01-18T03:04:30.273Z,99791.39
2019-01-18T03:06:57.666Z,99793.97
2019-01-18T03:09:27.851Z,99793.97
2019-01-18T03:11:55.544Z,99789.23
2019-01-18T03:14:24.003Z,99791.00
2019-01-18T03:16:51.102Z,99800.03
2019-01-18T03:19:20.227Z,99800.52
2019-01-18T03:21:47.532Z,99810.05
2019-01-18T03:24:14.700Z,99807.52
2019-01-18T03:26:42.036Z,99808.45
2019-01-18T03:29:09.140Z,99808.98
2019-01-18T03:31:36.450Z,99816.83
2019-01-18T03:34:03.601Z,99810.48
2019-01-18T03:36:31.024Z,99801.98
2019-01-18T03:38:58.426Z,99801.98
2019-01-18T03:41:27.364Z,99807.69
2019-01-18T03:43:56.420Z,99794.45
2019-01-18T03:46:23.593Z,99804.02
2019-01-18T03:48:51.917Z,99808.00
2019-01-18T03:51:20.385Z,99808.00
2019-01-18T03:53:49.434Z,99806.34
2019-01-18T03:56:17.055Z,99806.35
2019-01-18T03:58:44.290Z,99806.39
2019-01-18T04:01:12.620Z,99806.39
2019-01-18T04:03:39.916Z,99815.86
2019-01-18T04:06:08.973Z,99820.17
2019-01-18T04:08:36.405Z,99820.17
2019-01-18T04:11:03.630Z,99819.35
2019-01-18T04:13:31.149Z,99820.64
2019-01-18T04:16:00.166Z,99820.64
2019-01-18T04:18:27.277Z,99813.70
2019-01-18T04:20:54.403Z,99813.70
2019-01-18T04:23:21.511Z,99819.31
2019-01-18T04:25:50.407Z,99818.41
2019-01-18T04:28:18.836Z,99816.23
2019-01-18T04:30:46.185Z,99819.64
2019-01-18T04:33:13.548Z,99814.48
2019-01-18T04:35:40.907Z,99824.36
2019-01-18T04:38:09.126Z,99824.36
2019-01-18T04:40:38.176Z,99824.73
2019-01-18T04:43:05.380Z,99838.98
2019-01-18T04:45:33.143Z,99847.13
2019-01-18T04:48:02.375Z,99844.10
2019-01-18T04:50:29.540Z,99844.10
2019-01-18T04:52:56.876Z,99840.61
2019-01-18T04:55:24.279Z,99828.88
2019-01-18T04:57:51.609Z,99828.88
2019-01-18T05:00:24.681Z,99843.14
2019-01-18T05:02:53.853Z,99843.14
2019-01-18T05:05:21.269Z,99837.12
2019-01-18T05:07:48.559Z,99846.64
2019-01-18T05:10:17.997Z,99849.61
2019-01-18T05:12:45.107Z,99849.61
2019-01-18T05:15:17.828Z,99850.04
2019-01-18T05:17:44.931Z,99847.87
2019-01-18T05:20:12.261Z,99847.92
2019-01-18T05:22:39.596Z,99852.29
2019-01-18T05:25:09.878Z,99852.72
2019-01-18T05:27:36.998Z,99850.19
2019-01-18T05:30:07.706Z,99849.33
2019-01-18T05:32:34.802Z,99851.47
2019-01-18T05:35:01.931Z,99858.80
2019-01-18T05:37:29.028Z,99863.15
2019-01-18T05:39:56.121Z,99871.31
2019-01-18T05:42:23.289Z,99867.05
2019-01-18T05:44:50.383Z,99876.53
2019-01-18T05:47:17.501Z,99866.61
2019-01-18T05:49:44.608Z,99888.15
2019-01-18T05:52:11.704Z,99888.15
2019-01-18T05:54:38.812Z,99883.84
2019-01-18T05:57:05.899Z,99881.64
2019-01-18T05:59:33.018Z,99886.80
2019-01-18T06:02:00.121Z,99893.31
2019-01-18T06:04:27.215Z,99891.16
2019-01-18T06:06:54.321Z,99885.13
2019-01-18T06:09:21.435Z,99892.02
2019-01-18T06:11:48.539Z,99888.56
2019-01-18T06:14:15.635Z,99898.89
2019-01-18T06:16:42.760Z,99904.48
2019-01-18T06:19:09.861Z,99903.19
2019-01-18T06:21:36.967Z,99904.44
2019-01-18T06:24:04.082Z,99915.19
2019-01-18T06:26:31.184Z,99910.88
2019-01-18T06:28:58.290Z,99912.61
2019-01-18T06:31:25.391Z,99923.81
2019-01-18T06:33:52.749Z,99923.38
2019-01-18T06:36:19.851Z,99923.38
2019-01-18T06:38:46.973Z,99922.95
2019-01-18T06:41:20.038Z,99924.66
2019-01-18T06:43:47.137Z,99917.34
2019-01-18T06:46:14.244Z,99932.46
2019-01-18T06:48:41.960Z,99931.13
2019-01-18T06:51:09.071Z,99931.13
2019-01-18T06:53:36.217Z,99938.94
2019-01-18T06:56:03.431Z,99944.19
2019-01-18T06:58:30.531Z,99944.19
2019-01-18T07:00:57.641Z,99954.13
2019-01-18T07:03:24.748Z,99959.31
2019-01-18T07:05:51.859Z,99960.22
2019-01-18T07:08:18.970Z,99962.47
2019-01-18T07:10:49.061Z,99964.27
2019-01-18T07:13:16.175Z,99976.38
2019-01-18T07:15:43.283Z,99979.02
2019-01-18T07:18:10.408Z,99979.88
2019-01-18T07:20:37.496Z,99982.89
2019-01-18T07:23:04.606Z,99983.80
2019-01-18T07:25:31.825Z,99983.00
2019-01-18T07:27:59.235Z,99983.00
2019-01-18T07:30:32.140Z,100000.76
2019-01-18T07:32:59.252Z,99994.69
2019-01-18T07:35:26.362Z,99988.28
2019-01-18T07:37:53.470Z,99992.64
2019-01-18T07:40:20.674Z,100006.86
2019-01-18T07:42:47.827Z,100002.07
2019-01-18T07:45:20.756Z,100007.24
2019-01-18T07:47:47.868Z,100002.07
2019-01-18T07:50:19.953Z,100001.63
2019-01-18T07:52:44.001Z,100005.09
2019-01-18T07:55:11.323Z,100002.07
2019-01-18T07:57:38.419Z,100002.07
2019-01-18T08:00:10.048Z,100002.05
2019-01-18T08:02:37.156Z,100005.95
2019-01-18T08:05:04.775Z,100005.52
2019-01-18T08:07:31.898Z,100016.34
2019-01-18T08:09:59.008Z,100012.94
2019-01-18T08:12:26.189Z,100020.22
2019-01-18T08:14:53.337Z,100023.66
2019-01-18T08:17:20.447Z,100022.80
2019-01-18T08:19:47.579Z,100021.94
2019-01-18T08:22:14.684Z,100034.43
2019-01-18T08:24:41.851Z,100031.41
2019-01-18T08:27:08.968Z,100031.41
2019-01-18T08:29:36.185Z,100043.48
2019-01-18T08:32:03.323Z,100035.73
2019-01-18T08:34:30.458Z,100037.08
2019-01-18T08:36:57.565Z,100038.37
2019-01-18T08:39:24.678Z,100036.21
2019-01-18T08:41:51.797Z,100042.30
2019-01-18T08:44:18.929Z,100043.17
2019-01-18T08:46:46.146Z,100047.09
2019-01-18T08:49:13.281Z,100044.94
2019-01-18T08:51:40.390Z,100048.39
2019-01-18T08:54:07.494Z,100060.94
2019-01-18T08:56:34.604Z,100062.70
2019-01-18T08:59:01.722Z,100058.46
2019-01-18T09:01:35.506Z,100056.78
2019-01-18T09:03:57.912Z,100064.16
2019-01-18T09:06:25.174Z,100069.02
2019-01-18T09:08:52.316Z,100064.75
2019-01-18T09:11:19.423Z,100060.55
2019-01-18T09:13:46.536Z,100067.07
2019-01-18T09:16:13.686Z,100069.72
2019-01-18T09:18:40.805Z,100060.70
2019-01-18T09:21:07.912Z,100071.09
2019-01-18T09:23:35.074Z,100063.00
2019-01-18T09:26:02.183Z,100064.77
2019-01-18T09:28:29.344Z,100074.31
2019-01-18T09:30:56.472Z,100067.03
2019-01-18T09:33:23.560Z,100077.43
2019-01-18T09:35:50.896Z,100073.64
2019-01-18T09:38:18.186Z,100074.97
2019-01-18T09:40:45.360Z,100072.87
2019-01-18T09:43:12.464Z,100086.34
2019-01-18T09:45:39.557Z,100077.75
2019-01-18T09:48:08.347Z,100084.70
2019-01-18T09:50:35.455Z,100081.33
2019-01-18T09:53:02.855Z,100082.67
2019-01-18T09:55:29.969Z,100088.36
2019-01-18T09:57:57.064Z,100081.06
2019-01-18T10:00:26.561Z,100091.47
2019-01-18T10:02:53.912Z,100084.13
2019-01-18T10:05:21.457Z,100081.58
2019-01-18T10:07:48.571Z,100083.31
2019-01-18T10:10:17.005Z,100084.64
2019-01-18T10:12:44.372Z,100088.13
2019-01-18T10:15:16.934Z,100084.28
2019-01-18T10:17:44.403Z,100080.00
2019-01-18T10:20:12.852Z,100085.23
2019-01-18T10:22:40.149Z,100083.07
2019-01-18T10:25:09.139Z,100085.70
2019-01-18T10:27:36.238Z,100079.22
2019-01-18T10:30:04.463Z,100084.84
2019-01-18T10:32:31.564Z,100088.76
2019-01-18T10:34:58.681Z,100093.98
2019-01-18T10:37:25.784Z,100084.91
2019-01-18T10:39:52.948Z,100083.18
2019-01-18T10:42:20.047Z,100087.97
2019-01-18T10:44:47.146Z,100089.30
2019-01-18T10:47:14.255Z,100090.63
2019-01-18T10:49:41.348Z,100098.88
2019-01-18T10:52:08.464Z,100098.02
2019-01-18T10:54:35.573Z,100092.86
2019-01-18T10:57:02.776Z,100093.30
2019-01-18T10:59:29.891Z,100089.00
2019-01-18T11:02:03.269Z,100100.70
2019-01-18T11:04:26.008Z,100101.14
2019-01-18T11:06:53.109Z,100097.25
2019-01-18T11:09:20.217Z,100088.21
2019-01-18T11:11:47.314Z,100096.45
2019-01-18T11:14:14.478Z,100099.05
2019-01-18T11:16:44.418Z,100088.70
2019-01-18T11:19:11.532Z,100092.96
2019-01-18T11:21:38.735Z,100089.07
2019-01-18T11:24:05.830Z,100090.38
2019-01-18T11:26:32.974Z,100096.85
2019-01-18T11:29:00.062Z,100096.42
2019-01-18T11:31:27.201Z,100095.55
2019-01-18T11:33:54.332Z,100102.47
2019-01-18T11:36:21.448Z,100109.81
2019-01-18T11:38:48.685Z,100115.47
2019-01-18T11:41:15.808Z,100110.28
2019-01-18T11:43:42.899Z,100110.28
2019-01-18T11:46:10.013Z,100121.09
2019-01-18T11:48:37.117Z,100128.47
2019-01-18T11:51:04.239Z,100130.20
2019-01-18T11:53:31.335Z,100127.17
2019-01-18T11:55:58.476Z,100135.81
2019-01-18T11:58:25.592Z,100133.66
2019-01-18T12:00:53.051Z,100140.14
2019-01-18T12:03:20.252Z,100146.19
2019-01-18T12:05:47.353Z,100150.52
2019-01-18T12:08:14.462Z,100143.56
2019-01-18T12:10:44.821Z,100150.91
2019-01-18T12:13:12.033Z,100159.55
2019-01-18T12:15:42.208Z,100155.63
2019-01-18T12:18:12.120Z,100152.56
2019-01-18T12:20:40.740Z,100161.17
2019-01-18T12:23:09.097Z,100155.55
2019-01-18T12:25:36.240Z,100152.53
2019-01-18T12:28:03.882Z,100158.55
2019-01-18T12:30:32.959Z,100157.67
2019-01-18T12:33:00.083Z,100157.67
2019-01-18T12:35:27.542Z,100167.62
2019-01-18T12:37:54.752Z,100165.02
2019-01-18T12:40:21.855Z,100166.72
2019-01-18T12:42:49.155Z,100165.42
2019-01-18T12:45:18.026Z,100171.47
2019-01-18T12:47:45.156Z,100172.77
2019-01-18T12:50:24.400Z,100172.77
2019-01-18T12:52:51.500Z,100187.41
2019-01-18T12:55:18.609Z,100177.86
2019-01-18T12:57:45.719Z,100180.84
2019-01-18T13:00:15.248Z,100182.53
2019-01-18T13:02:42.356Z,100180.77
2019-01-18T13:05:12.421Z,100191.52
2019-01-18T13:07:39.527Z,100195.80
2019-01-18T13:10:11.943Z,100205.73
2019-01-18T13:12:35.791Z,100204.87
2019-01-18T13:15:04.757Z,100209.19
2019-01-18T13:17:31.878Z,100209.19
2019-01-18T13:19:58.978Z,100199.21
2019-01-18T13:22:26.273Z,100208.28
2019-01-18T13:24:53.389Z,100208.23
2019-01-18T13:27:20.476Z,100205.16
2019-01-18T13:29:47.581Z,100209.91
2019-01-18T13:32:14.693Z,100210.30
2019-01-18T13:34:41.816Z,100211.98
2019-01-18T13:37:08.918Z,100208.96
2019-01-18T13:39:36.021Z,100208.48
2019-01-18T13:42:03.139Z,100207.19
2019-01-18T13:44:30.271Z,100214.52
2019-01-18T13:46:57.435Z,100214.95
2019-01-18T13:49:24.563Z,100220.14
2019-01-18T13:51:51.660Z,100217.98
2019-01-18T13:54:18.790Z,100216.64
2019-01-18T13:56:45.899Z,100221.83
2019-01-18T13:59:12.983Z,100220.95
2019-01-18T14:01:40.091Z,100224.84
2019-01-18T14:04:07.212Z,100227.87
2019-01-18T14:06:34.339Z,100228.73
2019-01-18T14:09:01.441Z,100236.94
2019-01-18T14:11:28.658Z,100240.43
2019-01-18T14:13:55.788Z,100233.05
2019-01-18T14:16:22.955Z,100240.82
2019-01-18T14:18:50.062Z,100249.46
2019-01-18T14:21:17.187Z,100249.03
2019-01-18T14:23:44.294Z,100253.34
2019-01-18T14:26:11.418Z,100253.39
2019-01-18T14:28:38.537Z,100248.63
2019-01-18T14:31:06.024Z,100249.92
2019-01-18T14:33:33.118Z,100262.88
2019-01-18T14:36:00.252Z,100271.04
2019-01-18T14:38:27.340Z,100272.34
2019-01-18T14:40:54.450Z,100271.91
2019-01-18T14:43:21.549Z,100274.50
2019-01-18T14:45:50.285Z,100290.48
2019-01-18T14:48:17.422Z,100290.48
2019-01-18T14:50:47.328Z,100298.25
2019-01-18T14:53:14.423Z,100302.98
2019-01-18T14:55:44.440Z,100309.47
2019-01-18T14:58:12.746Z,100297.38
2019-01-18T15:00:40.002Z,100314.17
2019-01-18T15:03:07.330Z,100312.88
2019-01-18T15:05:34.443Z,100308.98
2019-01-18T15:08:01.564Z,100312.92
2019-01-18T15:10:28.764Z,100312.97
2019-01-18T15:12:59.033Z,100328.95
2019-01-18T15:15:26.150Z,100312.50
2019-01-18T15:17:53.254Z,100326.75
2019-01-18T15:20:22.924Z,100328.89
2019-01-18T15:22:50.528Z,100326.74
2019-01-18T15:25:20.155Z,100335.37
2019-01-18T15:27:47.965Z,100334.50
2019-01-18T15:30:17.759Z,100330.58
2019-01-18T15:32:44.882Z,100335.70
2019-01-18T15:35:14.124Z,100350.33
2019-01-18T15:37:41.390Z,100347.24
2019-01-18T15:40:10.780Z,100340.70
2019-01-18T15:42:37.884Z,100348.42
2019-01-18T15:45:05.664Z,100351.43
2019-01-18T15:47:32.806Z,100356.52
2019-01-18T15:50:02.790Z,100362.92
2019-01-18T15:52:29.894Z,100357.19
2019-01-18T15:54:57.000Z,100367.97
2019-01-18T15:57:24.113Z,100363.98
2019-01-18T15:59:51.274Z,100367.80
2019-01-18T16:02:18.361Z,100365.15
2019-01-18T16:04:45.493Z,100363.83
2019-01-18T16:07:12.612Z,100362.00
2019-01-18T16:09:39.799Z,100362.84
2019-01-18T16:12:06.901Z,100368.82
2019-01-18T16:14:34.019Z,100367.89
2019-01-18T16:17:15.367Z,100369.11
2019-01-18T16:19:42.503Z,100371.64
2019-01-18T16:22:09.652Z,100377.17
2019-01-18T16:24:36.760Z,100382.71
2019-01-18T16:27:03.956Z,100382.22
2019-01-18T16:29:31.077Z,100386.91
2019-01-18T16:31:58.185Z,100383.40
2019-01-18T16:34:25.291Z,100383.81
2019-01-18T16:36:52.419Z,100387.25
2019-01-18T16:39:19.731Z,100382.89
2019-01-18T16:41:46.852Z,100379.87
2019-01-18T16:44:13.964Z,100388.00
2019-01-18T16:46:41.094Z,100397.46
2019-01-18T16:49:08.192Z,100401.30
2019-01-18T16:51:35.317Z,100407.30
2019-01-18T16:54:02.724Z,100410.26
2019-01-18T16:56:29.837Z,100416.28
2019-01-18T16:58:56.949Z,100423.56
2019-01-18T17:01:24.086Z,100428.30
2019-01-18T17:03:51.221Z,100424.78
2019-01-18T17:06:18.335Z,100422.98
2019-01-18T17:08:45.516Z,100422.05
2019-01-18T17:11:12.645Z,100424.56
2019-01-18T17:13:40.632Z,100425.34
2019-01-18T17:16:07.932Z,100427.84
2019-01-18T17:18:35.241Z,100432.13
2019-01-18T17:21:04.164Z,100429.49
2019-01-18T17:23:34.395Z,100428.20
2019-01-18T17:26:01.516Z,100430.78
2019-01-18T17:28:29.744Z,100431.23
2019-01-18T17:31:05.225Z,100428.64
2019-01-18T17:33:36.737Z,100430.44
2019-01-18T17:36:16.731Z,100428.27
2019-01-18T17:39:06.617Z,100422.68
2019-01-18T17:42:01.331Z,100424.02
2019-01-18T17:45:11.800Z,100436.10
2019-01-18T17:48:12.949Z,100430.51
2019-01-18T17:51:21.959Z,100431.78
2019-01-18T17:54:10.716Z,100439.48
2019-01-18T17:57:02.037Z,100440.69
2019-01-18T17:59:57.680Z,100452.24
2019-01-18T18:02:49.941Z,100452.59
2019-01-18T18:06:00.075Z,100452.07
2019-01-18T18:08:45.295Z,100456.81
2019-01-18T18:11:39.767Z,100454.68
2019-01-18T18:14:47.707Z,100465.47
2019-01-18T18:17:42.766Z,100467.23
2019-01-18T18:20:57.476Z,100467.66
2019-01-18T18:24:05.138Z,100470.77
2019-01-18T18:27:24.876Z,100472.55
2019-01-18T18:30:34.955Z,100476.44
2019-01-18T18:33:51.980Z,100475.94
2019-01-18T18:36:44.011Z,100483.19
2019-01-18T18:39:56.061Z,100479.73
2019-01-18T18:42:44.976Z,100487.91
2019-01-18T18:45:40.749Z,100494.80
2019-01-18T18:48:58.696Z,100497.78
2019-01-18T18:51:50.698Z,100502.50
2019-01-18T18:54:35.227Z,100500.27
2019-01-18T18:57:29.700Z,100502.83
2019-01-18T19:00:35.485Z,100498.47
2019-01-18T19:03:43.419Z,100507.91
2019-01-18T19:06:38.713Z,100514.38
2019-01-18T19:09:43.456Z,100519.55
2019-01-18T19:13:13.628Z,100515.22
2019-01-18T19:16:28.087Z,100517.33
2019-01-18T19:19:38.512Z,100519.10
2019-01-18T19:22:45.662Z,100518.17
2019-01-18T19:25:43.556Z,100523.50
2019-01-18T19:28:38.973Z,100522.73
2019-01-18T19:31:41.233Z,100528.01
2019-01-18T19:34:44.128Z,100537.21
2019-01-18T19:38:07.900Z,100535.20
2019-01-18T19:40:42.855Z,100539.20
2019-01-18T19:43:43.364Z,100547.89
2019-01-18T19:46:37.565Z,100551.77
2019-01-18T19:50:00.778Z,100557.73
2019-01-18T19:53:08.622Z,100558.21
2019-01-18T19:56:17.259Z,100557.02
2019-01-18T19:59:10.893Z,100559.25
2019-01-18T20:02:13.070Z,100554.43
2019-01-18T20:05:00.000Z,100566.22
2019-01-18T20:08:27.446Z,100569.70
2019-01-18T20:11:27.445Z,100575.80
2019-01-18T20:14:29.885Z,100568.04
2019-01-18T20:17:56.865Z,100572.28
2019-01-18T20:21:14.870Z,100581.34
2019-01-18T20:24:02.899Z,100581.34
2019-01-18T20:27:07.928Z,100582.69
2019-01-18T20:30:14.610Z,100584.06
2019-01-18T20:33:12.154Z,100585.30
2019-01-18T20:36:08.995Z,100593.91
2019-01-18T20:39:20.803Z,100600.81
2019-01-18T20:42:29.493Z,100600.38
2019-01-18T20:45:37.182Z,100606.86
2019-01-18T20:48:28.257Z,100600.00
2019-01-18T20:51:14.233Z,100607.70
2019-01-18T20:54:22.160Z,100611.56
2019-01-18T20:57:41.867Z,100602.95
2019-01-18T21:00:51.346Z,100606.41
2019-01-18T21:04:00.323Z,100613.33
2019-01-18T21:06:55.328Z,100620.72
2019-01-18T21:09:58.450Z,100626.77
2019-01-18T21:13:19.589Z,100630.72
2019-01-18T21:16:43.192Z,100628.23
2019-01-18T21:19:34.855Z,100628.84
2019-01-18T21:22:40.694Z,100631.48
2019-01-18T21:25:50.593Z,100634.94
2019-01-18T21:28:48.635Z,100636.59
2019-01-18T21:32:06.488Z,100632.25
2019-01-18T21:35:03.747Z,100634.84
2019-01-18T21:38:11.390Z,100635.62
2019-01-18T21:41:02.767Z,100639.86
2019-01-18T21:44:18.138Z,100650.55
2019-01-18T21:47:05.454Z,100653.50
2019-01-18T21:50:01.456Z,100652.20
2019-01-18T21:53:16.296Z,100651.39
2019-01-18T21:56:40.497Z,100656.95
2019-01-18T21:59:46.632Z,100654.85
2019-01-18T22:02:54.611Z,100655.32
2019-01-18T22:06:02.353Z,100645.82
2019-01-18T22:08:57.143Z,100653.92
2019-01-18T22:12:06.884Z,100659.89
2019-01-18T22:15:10.568Z,100658.55
2019-01-18T22:18:03.218Z,100660.20
2019-01-18T22:21:15.623Z,100657.20
2019-01-18T22:24:01.728Z,100662.71
2019-01-18T22:27:01.888Z,100661.92
2019-01-18T22:29:56.363Z,100660.15
2019-01-18T22:33:01.380Z,100669.59
2019-01-18T22:36:19.172Z,100666.56
2019-01-18T22:39:31.004Z,100668.25
2019-01-18T22:42:47.854Z,100679.02
2019-01-18T22:45:39.044Z,100678.57
2019-01-18T22:48:48.096Z,100686.69
2019-01-18T22:52:21.248Z,100690.57
2019-01-18T22:55:31.261Z,100695.30
2019-01-18T22:58:36.106Z,100698.33
2019-01-18T23:01:57.316Z,100700.02
2019-01-18T23:04:59.017Z,100706.00
2019-01-18T23:08:17.188Z,100708.98
2019-01-18T23:11:19.508Z,100726.69
2019-01-18T23:14:55.596Z,100724.59
2019-01-18T23:17:31.907Z,100723.72
2019-01-18T23:20:34.069Z,100724.92
2019-01-18T23:23:46.248Z,100721.05
2019-01-18T23:26:42.001Z,100717.98
2019-01-18T23:29:59.915Z,100727.42
2019-01-18T23:33:00.583Z,100729.05
2019-01-18T23:36:21.324Z,100738.91
2019-01-18T23:39:12.458Z,100739.75
2019-01-18T23:42:06.009Z,100741.36
2019-01-18T23:45:03.433Z,100748.36
2019-01-18T23:47:59.398Z,100750.94
2019-01-18T23:50:44.450Z,100752.23
2019-01-18T23:53:32.073Z,100757.41
2019-01-18T23:56:41.920Z,100763.00
2019-01-18T23:59:25.333Z,100765.52
